Portada
METAR-TAF:

METAR-TAF

Aeropuertos :

Aeropuerto Internacional de Bagdad

Bagdad, Iraq

latitud: 33-15-45N, longitud: 44-14-04E, altitud: 35 m

Observación

El informe se hizo hace 1 hora y 2 minutos, a las 09:00 UTC
Viento 17 kt del oeste-noroeste, variando entre oeste y noroeste
Temperatura 33°C
Humedad 19%
Presión 1014 hPa
Visibilidad 10 km o más
sin nubes por debajo de 1500 m y sin presencia de cumulonimbus.

METAR: ORBI 260900Z 29017KT 260V320 CAVOK 33/06 Q1014 NOSIG

Hora: 13:02 (10:02 UTC)

Pronóstico

El informe se hizo hace 6 horas y 2 minutos, a las 04:00 UTC
Pronóstico válido del 26 a las 06 UTC al 27 a las 06 UTC
Viento 14 kt del noroeste
Visibilidad 10 km o más
sin nubes por debajo de 1500 m y sin presencia de cumulonimbus.
Evolucionando progresivamente
del 26 a las 18 UTC al 26 a las 20 UTC
Viento 8 kt del noroeste

TAF: ORBI 260400Z 2606/2706 32014KT CAVOK BECMG 2618/2620 32008KT

Observaciones y pronósticos meteorológicos de más de 4000 aeropuertos (mensajes METAR y TAF).

Los puntos amarillos y rojos representan las estaciones disponibles.

Ponga el ratón en el punto deseado para ver el nombre de la estación.

Haga clic para ver las observaciones y los pronósticos meteorológicos.

Para cambiar el mapa : haga clic en los botones verdes con una cruz de color negro para hacer un zoom, en el botón verde con un guión para alejar o en las flechas verdes para mapas adyacentes.


METAR-TAF: